Time;durP1;ratioP1;P1;durP2;ratioP2;P2;SDS_P1;SDS_P2;PMS_P1;PMS_P2;Temp;Humidity;BMP_temperature;BMP_pressure;BME280_temperature;BME280_humidity;BME280_pressure;Samples;Min_cycle;Max_cycle;Signal;HPM_P1;HPM_P2
2022/10/01 00:01:51;;;;;;;10.75;6.82;;;11.70;99.90;;;;;;5011979;28;20081;-79
2022/10/01 00:04:17;;;;;;;10.75;6.10;;;11.70;99.90;;;;;;5011980;28;20064;-80
2022/10/01 00:06:42;;;;;;;11.60;7.60;;;11.70;99.90;;;;;;5011996;28;20034;-77
2022/10/01 00:09:08;;;;;;;13.53;7.67;;;11.70;99.90;;;;;;5011950;28;20030;-80
2022/10/01 00:11:36;;;;;;;10.50;7.57;;;11.60;99.90;;;;;;4995642;28;20065;-82
2022/10/01 00:14:02;;;;;;;11.30;7.63;;;11.60;99.90;;;;;;5013106;28;20080;-82
2022/10/01 00:16:29;;;;;;;9.37;7.07;;;11.60;99.90;;;;;;5015407;28;20061;-78
2022/10/01 00:18:55;;;;;;;11.95;7.97;;;11.50;99.90;;;;;;5015519;28;20038;-77
2022/10/01 00:21:30;;;;;;;11.57;7.83;;;11.50;99.90;;;;;;5015659;28;20034;-81
2022/10/01 00:24:01;;;;;;;12.10;7.53;;;11.50;99.90;;;;;;5016760;28;20072;-78
2022/10/01 00:26:30;;;;;;;16.83;9.07;;;11.50;99.90;;;;;;5016610;28;20109;-81
2022/10/01 00:29:09;;;;;;;13.13;8.83;;;11.50;99.90;;;;;;5031849;28;20022;-82
2022/10/01 00:31:35;;;;;;;11.83;8.67;;;11.50;99.90;;;;;;5015222;28;20033;-81
2022/10/01 00:34:02;;;;;;;13.27;8.17;;;11.60;99.90;;;;;;5015353;28;20037;-79
2022/10/01 00:36:28;;;;;;;15.43;9.23;;;11.50;99.90;;;;;;5032048;28;20029;-81
2022/10/01 00:38:59;;;;;;;12.47;8.30;;;11.40;99.90;;;;;;5016208;28;20034;-77
2022/10/01 00:41:26;;;;;;;11.53;8.43;;;11.40;99.90;;;;;;5015236;28;20069;-80
2022/10/01 00:43:57;;;;;;;12.50;8.93;;;11.50;99.90;;;;;;5015377;28;20076;-81
2022/10/01 00:46:37;;;;;;;15.10;9.43;;;11.30;99.90;;;;;;5031543;28;20497;-80
2022/10/01 00:49:16;;;;;;;13.97;8.77;;;11.30;99.90;;;;;;5031363;28;20037;-81
2022/10/01 00:51:45;;;;;;;12.23;8.60;;;11.30;99.90;;;;;;5031268;28;20068;-78
2022/10/01 00:54:27;;;;;;;14.80;9.17;;;11.30;99.90;;;;;;5031392;28;20033;-81
2022/10/01 00:56:55;;;;;;;14.43;9.93;;;11.40;99.90;;;;;;5031212;28;20487;-81
2022/10/01 00:59:21;;;;;;;15.00;8.63;;;11.30;99.90;;;;;;5031120;28;20123;-81
2022/10/01 01:01:47;;;;;;;13.87;9.50;;;11.30;99.90;;;;;;5014875;28;20481;-81
2022/10/01 01:04:15;;;;;;;16.47;9.80;;;11.30;99.90;;;;;;4998435;28;20470;-80
2022/10/01 01:06:54;;;;;;;12.50;8.93;;;11.30;99.90;;;;;;5015037;28;20540;-77
2022/10/01 01:09:41;;;;;;;14.00;9.17;;;11.30;99.90;;;;;;5015738;28;20097;-77
2022/10/01 01:12:28;;;;;;;15.30;9.77;;;11.40;99.90;;;;;;5030927;28;20026;-80
2022/10/01 01:15:20;;;;;;;14.50;8.87;;;11.30;99.90;;;;;;5031278;28;20466;-79
2022/10/01 01:18:04;;;;;;;14.63;8.90;;;11.30;99.90;;;;;;5030876;28;20058;-81
2022/10/01 01:20:45;;;;;;;;;;;11.30;99.90;;;;;;5031794;28;20445;-77
2022/10/01 01:23:13;;;;;;;19.03;9.50;;;11.30;99.90;;;;;;5033072;28;19905;-78
2022/10/01 01:26:04;;;;;;;16.17;10.63;;;11.30;99.90;;;;;;5033824;28;20029;-79
2022/10/01 01:28:35;;;;;;;12.30;9.17;;;11.30;99.90;;;;;;5034001;28;20057;-85
2022/10/01 01:31:06;;;;;;;19.53;10.87;;;11.30;99.90;;;;;;5035234;28;20091;-78
2022/10/01 01:33:36;;;;;;;15.17;9.90;;;11.20;99.90;;;;;;5035095;28;20059;-78
2022/10/01 01:36:09;;;;;;;17.00;11.03;;;11.20;99.90;;;;;;5033911;28;20022;-82
2022/10/01 01:38:44;;;;;;;18.25;10.20;;;11.20;99.90;;;;;;5035000;28;20052;-81
2022/10/01 01:41:11;;;;;;;16.30;10.90;;;11.30;99.90;;;;;;5033720;28;20013;-79
2022/10/01 01:43:40;;;;;;;16.27;9.67;;;11.20;99.90;;;;;;5017285;28;20054;-80
2022/10/01 01:46:09;;;;;;;15.67;9.67;;;11.20;99.90;;;;;;5033576;28;20018;-81
2022/10/01 01:48:40;;;;;;;11.77;8.33;;;11.20;99.90;;;;;;5017342;28;20021;-78
2022/10/01 01:51:24;;;;;;;14.03;10.07;;;11.20;99.90;;;;;;5033560;28;20053;-82
2022/10/01 01:53:50;;;;;;;14.10;8.63;;;11.20;99.90;;;;;;5033814;28;20370;-80
2022/10/01 01:56:16;;;;;;;11.63;7.93;;;11.30;99.90;;;;;;5016889;28;20026;-78
2022/10/01 01:58:44;;;;;;;12.17;7.83;;;11.30;99.90;;;;;;5016630;28;20041;-82
2022/10/01 02:01:33;;;;;;;12.57;7.60;;;11.30;99.90;;;;;;5033088;28;20025;-83
2022/10/01 02:04:01;;;;;;;15.87;8.60;;;11.20;99.90;;;;;;5034502;28;20025;-79
2022/10/01 02:06:53;;;;;;;17.00;8.83;;;11.20;99.90;;;;;;5034558;28;20104;-79
2022/10/01 02:09:26;;;;;;;12.63;8.10;;;11.30;99.90;;;;;;5033195;28;20052;-80
2022/10/01 02:12:06;;;;;;;8.23;5.90;;;11.30;99.90;;;;;;5033634;28;20391;-80
2022/10/01 02:14:44;;;;;;;11.80;7.13;;;11.20;99.90;;;;;;5033131;28;20512;-82
2022/10/01 02:17:31;;;;;;;13.43;7.60;;;11.30;99.90;;;;;;5033023;28;20028;-79
2022/10/01 02:20:09;;;;;;;13.03;7.33;;;11.20;99.90;;;;;;5032838;28;20546;-80
2022/10/01 02:22:51;;;;;;;10.40;7.83;;;11.30;99.90;;;;;;5032927;28;20086;-84
2022/10/01 02:25:25;;;;;;;11.27;6.67;;;11.20;99.90;;;;;;5033087;28;20100;-80
2022/10/01 02:28:02;;;;;;;13.80;6.40;;;11.30;99.90;;;;;;5032889;28;20076;-78
2022/10/01 02:30:30;;;;;;;10.57;6.60;;;11.30;99.90;;;;;;5032876;28;20497;-79
2022/10/01 02:32:59;;;;;;;10.00;4.97;;;11.30;99.90;;;;;;5033137;28;20028;-78
2022/10/01 02:35:27;;;;;;;11.03;5.67;;;11.30;99.90;;;;;;5032798;28;20033;-79
2022/10/01 02:37:55;;;;;;;7.70;4.77;;;11.30;99.90;;;;;;5032084;28;20022;-79
2022/10/01 02:40:26;;;;;;;7.90;4.67;;;11.30;99.90;;;;;;5032647;28;20017;-81
2022/10/01 02:42:56;;;;;;;10.67;4.60;;;11.30;99.90;;;;;;5032678;28;20026;-81
2022/10/01 02:45:26;;;;;;;6.73;3.73;;;11.30;99.90;;;;;;5033364;28;20022;-82
2022/10/01 02:48:16;;;;;;;7.67;4.80;;;11.20;99.90;;;;;;5033428;28;20029;-82
2022/10/01 02:50:54;;;;;;;6.67;3.80;;;11.30;99.90;;;;;;5033203;28;20452;-81
2022/10/01 02:53:34;;;;;;;6.17;3.70;;;11.30;99.90;;;;;;5017472;28;20029;-78
2022/10/01 02:56:01;;;;;;;6.35;3.40;;;11.30;99.90;;;;;;5032823;28;20029;-79
2022/10/01 02:58:28;;;;;;;6.60;3.70;;;11.30;99.90;;;;;;5032637;28;20440;-81
2022/10/01 03:00:53;;;;;;;6.03;3.20;;;11.30;99.90;;;;;;5032594;28;20076;-80
2022/10/01 03:03:19;;;;;;;6.13;3.80;;;11.30;99.90;;;;;;5016018;28;20021;-78
2022/10/01 03:05:45;;;;;;;5.93;3.35;;;11.30;99.90;;;;;;5015935;28;20022;-81
2022/10/01 03:08:13;;;;;;;5.83;3.40;;;11.30;99.90;;;;;;5032168;28;20021;-80
2022/10/01 03:10:38;;;;;;;4.83;3.13;;;11.30;99.90;;;;;;5016058;28;20022;-81
2022/10/01 03:13:05;;;;;;;6.57;2.83;;;11.30;99.90;;;;;;5032179;28;20033;-80
2022/10/01 03:15:30;;;;;;;5.83;3.00;;;11.30;99.90;;;;;;5032333;28;20045;-82
2022/10/01 03:17:56;;;;;;;5.10;2.93;;;11.30;99.90;;;;;;5015765;28;20076;-82
2022/10/01 03:20:22;;;;;;;4.87;3.37;;;11.30;99.90;;;;;;5033275;28;20049;-81
2022/10/01 03:22:48;;;;;;;4.70;3.10;;;11.30;99.90;;;;;;5031913;28;20045;-81
2022/10/01 03:25:14;;;;;;;5.03;3.13;;;11.30;99.90;;;;;;5015641;28;20029;-82
2022/10/01 03:27:40;;;;;;;4.57;2.27;;;11.30;99.90;;;;;;5032167;28;20025;-79
2022/10/01 03:30:07;;;;;;;4.57;2.57;;;11.30;99.90;;;;;;5015570;28;20558;-84
2022/10/01 03:32:32;;;;;;;5.03;3.33;;;11.30;99.90;;;;;;5031989;28;20034;-80
2022/10/01 03:34:58;;;;;;;4.57;2.50;;;11.30;99.90;;;;;;5032019;28;20017;-82
2022/10/01 03:37:24;;;;;;;4.03;2.20;;;11.30;99.90;;;;;;5031865;28;20464;-84
2022/10/01 03:39:50;;;;;;;5.60;2.73;;;11.40;99.90;;;;;;5031835;28;20486;-82
2022/10/01 03:42:16;;;;;;;4.67;2.47;;;11.40;99.90;;;;;;5015608;28;20053;-83
2022/10/01 03:44:42;;;;;;;3.63;2.40;;;11.40;99.90;;;;;;5031817;28;20381;-79
2022/10/01 03:47:08;;;;;;;5.53;2.70;;;11.40;99.90;;;;;;5032181;28;20038;-83
2022/10/01 03:49:34;;;;;;;4.23;2.50;;;11.50;99.90;;;;;;5018645;28;20029;-83
2022/10/01 03:52:01;;;;;;;3.97;2.47;;;11.50;99.90;;;;;;5019538;28;20069;-83
2022/10/01 03:54:29;;;;;;;4.93;2.50;;;11.50;99.90;;;;;;5020054;28;20470;-78
2022/10/01 03:56:54;;;;;;;6.77;2.67;;;11.50;99.90;;;;;;5035604;28;20076;-82
2022/10/01 03:59:20;;;;;;;5.73;2.50;;;11.50;99.90;;;;;;5019555;28;20053;-82
2022/10/01 04:01:46;;;;;;;4.13;2.20;;;11.50;99.90;;;;;;5036829;28;20380;-82
2022/10/01 04:04:12;;;;;;;4.43;2.37;;;11.50;99.90;;;;;;5019145;28;20067;-81
2022/10/01 04:06:40;;;;;;;3.95;2.60;;;11.60;99.90;;;;;;5035509;28;20075;-82
2022/10/01 04:09:08;;;;;;;3.60;2.00;;;11.60;99.90;;;;;;5035396;28;20025;-83
2022/10/01 04:11:34;;;;;;;4.77;2.33;;;11.70;99.90;;;;;;5035756;28;20029;-82
2022/10/01 04:14:00;;;;;;;3.70;1.88;;;11.60;99.90;;;;;;5035380;28;20503;-82
2022/10/01 04:16:25;;;;;;;3.63;1.83;;;11.60;99.90;;;;;;5035958;28;20052;-82
2022/10/01 04:18:54;;;;;;;3.53;1.83;;;11.60;99.90;;;;;;5018886;28;20032;-82
2022/10/01 04:21:19;;;;;;;3.50;1.97;;;11.60;99.90;;;;;;5035203;28;20014;-82
2022/10/01 04:23:49;;;;;;;3.77;1.63;;;11.60;99.90;;;;;;5035227;28;20478;-83
2022/10/01 04:26:16;;;;;;;4.20;2.00;;;11.80;99.90;;;;;;5018757;28;20075;-83
2022/10/01 04:28:45;;;;;;;3.27;2.10;;;11.70;99.90;;;;;;5018935;28;20034;-82
2022/10/01 04:31:26;;;;;;;2.77;1.80;;;11.70;99.90;;;;;;5035308;28;20041;-83
2022/10/01 04:33:56;;;;;;;4.15;1.95;;;11.70;99.90;;;;;;5020645;28;20163;-82
2022/10/01 04:36:22;;;;;;;5.03;2.00;;;11.80;99.90;;;;;;5018424;28;20025;-80
2022/10/01 04:38:53;;;;;;;2.92;1.85;;;11.80;99.90;;;;;;5018248;28;20061;-82
2022/10/01 04:41:21;;;;;;;5.97;2.07;;;11.80;99.90;;;;;;5035303;28;20022;-81
2022/10/01 04:43:47;;;;;;;4.15;2.30;;;11.80;99.90;;;;;;5018395;28;20022;-79
2022/10/01 04:46:13;;;;;;;4.25;2.03;;;11.80;99.90;;;;;;5034724;28;20109;-83
2022/10/01 04:48:39;;;;;;;3.85;2.35;;;11.80;99.90;;;;;;5018200;28;20025;-82
2022/10/01 04:51:04;;;;;;;4.03;1.95;;;11.80;99.90;;;;;;5018308;28;20551;-80
2022/10/01 04:53:30;;;;;;;2.97;1.70;;;11.80;99.90;;;;;;5034728;28;20057;-80
2022/10/01 04:55:56;;;;;;;3.65;2.38;;;11.80;99.90;;;;;;5018072;28;20040;-81
2022/10/01 04:58:22;;;;;;;3.60;2.08;;;11.90;99.90;;;;;;5034548;28;20463;-81
2022/10/01 05:00:48;;;;;;;3.97;2.30;;;11.90;99.90;;;;;;5035481;28;20052;-82
2022/10/01 05:03:15;;;;;;;3.85;2.20;;;11.80;99.90;;;;;;5034618;28;20034;-81
2022/10/01 05:05:41;;;;;;;4.20;2.57;;;11.90;99.90;;;;;;5034534;28;20090;-79
2022/10/01 05:08:07;;;;;;;5.45;2.40;;;12.00;99.90;;;;;;5017983;28;20029;-79
2022/10/01 05:10:32;;;;;;;3.92;2.15;;;12.00;99.90;;;;;;5018048;28;20045;-81
2022/10/01 05:13:01;;;;;;;4.22;2.10;;;11.90;99.90;;;;;;5017941;28;20339;-81
2022/10/01 05:15:27;;;;;;;4.30;2.40;;;12.00;99.90;;;;;;5034650;28;20393;-80
2022/10/01 05:17:53;;;;;;;3.80;2.42;;;12.00;99.90;;;;;;5034273;28;20025;-82
2022/10/01 05:20:21;;;;;;;4.63;2.65;;;12.00;99.90;;;;;;5018013;28;20036;-82
2022/10/01 05:22:48;;;;;;;3.90;2.28;;;12.00;99.90;;;;;;5034169;28;20030;-81
2022/10/01 05:25:14;;;;;;;4.10;2.50;;;12.10;99.90;;;;;;5017581;28;20486;-81
2022/10/01 05:27:40;;;;;;;4.18;2.50;;;12.10;99.90;;;;;;5034069;28;20018;-81
2022/10/01 05:30:08;;;;;;;4.15;2.55;;;12.10;99.90;;;;;;5034271;28;20101;-82
2022/10/01 05:32:39;;;;;;;4.05;2.53;;;12.10;99.90;;;;;;5035252;28;20030;-82
2022/10/01 05:35:06;;;;;;;7.97;2.72;;;12.10;99.90;;;;;;5017482;28;20033;-81
2022/10/01 05:37:32;;;;;;;7.13;2.97;;;12.20;99.90;;;;;;5017446;28;20061;-80
2022/10/01 05:39:57;;;;;;;7.03;3.65;;;12.20;99.90;;;;;;5033721;28;20059;-83
2022/10/01 05:42:24;;;;;;;7.60;3.58;;;12.20;99.90;;;;;;5015633;28;20541;-82
2022/10/01 05:44:50;;;;;;;5.07;3.20;;;12.20;99.90;;;;;;5026901;28;20026;-82
2022/10/01 05:47:17;;;;;;;6.00;3.15;;;12.30;99.90;;;;;;5015918;28;20478;-81
2022/10/01 05:49:43;;;;;;;4.88;3.60;;;12.20;99.90;;;;;;5033301;28;20033;-82
2022/10/01 05:52:14;;;;;;;7.43;3.63;;;12.30;99.90;;;;;;5030128;28;20029;-82
2022/10/01 05:54:40;;;;;;;5.40;3.42;;;12.30;99.90;;;;;;5050097;28;20037;-81
2022/10/01 05:57:06;;;;;;;5.78;3.47;;;12.30;99.90;;;;;;5035118;28;20037;-80
2022/10/01 05:59:33;;;;;;;5.75;3.80;;;12.30;99.90;;;;;;5036619;28;20504;-81
2022/10/01 06:01:58;;;;;;;8.63;4.03;;;12.40;99.90;;;;;;5037139;28;20032;-81
2022/10/01 06:04:24;;;;;;;6.45;4.13;;;12.40;99.90;;;;;;5036840;28;20021;-81
2022/10/01 06:06:52;;;;;;;5.53;3.83;;;12.40;99.90;;;;;;5053192;28;20099;-81
2022/10/01 06:09:20;;;;;;;5.70;3.80;;;12.40;99.90;;;;;;5053127;28;20033;-81
2022/10/01 06:11:47;;;;;;;8.27;4.70;;;12.50;99.90;;;;;;5019180;28;20370;-82
2022/10/01 06:14:13;;;;;;;5.93;4.07;;;12.40;99.90;;;;;;5053062;28;20028;-82
2022/10/01 06:16:39;;;;;;;8.23;5.00;;;12.50;99.90;;;;;;5036905;28;20484;-82
2022/10/01 06:19:04;;;;;;;8.20;4.57;;;12.50;99.90;;;;;;5019867;28;20029;-78
2022/10/01 06:21:30;;;;;;;8.85;6.35;;;12.60;99.90;;;;;;5036185;28;20116;-81
2022/10/01 06:23:59;;;;;;;8.15;6.00;;;12.50;99.90;;;;;;5036237;28;20098;-83
2022/10/01 06:26:25;;;;;;;8.68;6.60;;;12.50;99.90;;;;;;5036603;28;20033;-80
2022/10/01 06:28:51;;;;;;;9.57;7.00;;;12.50;99.90;;;;;;5052968;28;20400;-82
2022/10/01 06:31:18;;;;;;;7.85;5.40;;;12.50;99.90;;;;;;5036320;28;20041;-82
2022/10/01 06:33:43;;;;;;;7.47;6.40;;;12.60;99.90;;;;;;5036168;28;20048;-82
2022/10/01 06:36:10;;;;;;;9.10;7.00;;;12.60;99.90;;;;;;5020321;28;20028;-82
2022/10/01 06:38:35;;;;;;;10.60;6.95;;;12.70;99.90;;;;;;5036663;28;20040;-83
2022/10/01 06:41:03;;;;;;;12.63;9.43;;;12.70;99.90;;;;;;5019266;28;20025;-82
2022/10/01 06:43:30;;;;;;;12.15;9.25;;;12.70;99.90;;;;;;5036175;28;20108;-81
2022/10/01 06:45:59;;;;;;;12.93;9.82;;;12.70;99.90;;;;;;5035111;28;20029;-81
2022/10/01 06:48:25;;;;;;;12.32;9.73;;;12.80;99.90;;;;;;5032570;28;20107;-81
2022/10/01 06:50:51;;;;;;;13.40;10.95;;;12.80;99.90;;;;;;5052632;28;20025;-81
2022/10/01 06:53:18;;;;;;;13.63;10.02;;;12.90;99.90;;;;;;5016033;28;20026;-82
2022/10/01 06:55:45;;;;;;;13.32;10.70;;;12.90;99.90;;;;;;5028278;28;20020;-81
2022/10/01 06:58:15;;;;;;;13.52;10.80;;;12.90;99.90;;;;;;5035718;28;20102;-81
2022/10/01 07:00:42;;;;;;;13.05;10.60;;;12.90;99.90;;;;;;5019845;28;20354;-82
2022/10/01 07:03:12;;;;;;;13.95;11.43;;;13.00;99.90;;;;;;5019058;28;20021;-80
2022/10/01 07:05:39;;;;;;;13.68;12.02;;;13.00;99.90;;;;;;5035412;28;20029;-80
2022/10/01 07:08:05;;;;;;;15.95;13.13;;;13.00;99.90;;;;;;5035574;28;20021;-81
2022/10/01 07:10:31;;;;;;;13.00;11.27;;;13.10;99.90;;;;;;5019143;28;20036;-81
2022/10/01 07:13:06;;;;;;;17.30;13.05;;;13.10;99.90;;;;;;5035497;28;20389;-80
2022/10/01 07:15:32;;;;;;;16.30;12.07;;;13.10;99.90;;;;;;5019153;28;20025;-80
2022/10/01 07:17:57;;;;;;;12.85;11.05;;;13.20;99.90;;;;;;5018906;28;20515;-80
2022/10/01 07:20:23;;;;;;;16.10;13.18;;;13.20;99.90;;;;;;5018810;28;20029;-81
2022/10/01 07:22:58;;;;;;;15.48;12.95;;;13.20;99.90;;;;;;5020280;28;20025;-80
2022/10/01 07:25:25;;;;;;;16.08;13.25;;;13.30;99.90;;;;;;5025393;28;20370;-81
2022/10/01 07:27:58;;;;;;;16.63;12.52;;;13.40;99.90;;;;;;5042211;28;20029;-80
2022/10/01 07:30:25;;;;;;;15.20;12.27;;;13.40;99.90;;;;;;5026057;28;20036;-84
2022/10/01 07:32:51;;;;;;;16.02;13.00;;;13.50;99.90;;;;;;5041908;28;20473;-82
2022/10/01 07:35:19;;;;;;;16.30;11.45;;;13.60;99.90;;;;;;5041883;28;20082;-81
2022/10/01 07:37:49;;;;;;;15.43;12.45;;;13.60;99.90;;;;;;5041972;28;20029;-82
2022/10/01 07:40:15;;;;;;;17.15;13.13;;;13.70;99.90;;;;;;5026281;28;20388;-81
2022/10/01 07:42:42;;;;;;;18.45;13.02;;;13.80;99.90;;;;;;5025324;28;20021;-81
2022/10/01 07:45:08;;;;;;;16.83;12.93;;;13.80;99.90;;;;;;5041816;28;20025;-82
2022/10/01 07:47:34;;;;;;;17.65;14.05;;;13.80;99.90;;;;;;5059733;28;20179;-82
2022/10/01 07:50:00;;;;;;;19.98;14.02;;;13.90;99.90;;;;;;5025315;28;20541;-82
2022/10/01 07:52:25;;;;;;;15.95;12.98;;;13.80;99.90;;;;;;5025193;28;20037;-84
2022/10/01 07:54:51;;;;;;;16.52;13.85;;;13.90;99.90;;;;;;5041586;28;20032;-84
2022/10/01 07:57:17;;;;;;;16.50;14.65;;;14.00;99.90;;;;;;5025054;28;20110;-83
2022/10/01 07:59:44;;;;;;;17.25;13.77;;;14.10;99.90;;;;;;5025260;28;20048;-82
2022/10/01 08:02:30;;;;;;;18.75;15.27;;;14.10;99.90;;;;;;5041494;28;20033;-82
2022/10/01 08:07:40;;;;;;;19.08;16.20;;;14.30;99.90;;;;;;5059811;28;20036;-83
2022/10/01 08:10:06;;;;;;;19.40;14.93;;;14.40;99.90;;;;;;5041750;28;20381;-82
2022/10/01 08:12:31;;;;;;;21.85;13.38;;;14.40;99.90;;;;;;5024858;28;20033;-80
2022/10/01 08:14:57;;;;;;;22.38;14.98;;;14.50;99.90;;;;;;5008707;28;20040;-82
2022/10/01 08:17:23;;;;;;;18.13;13.73;;;14.50;99.90;;;;;;5041449;28;20025;-81
2022/10/01 08:19:49;;;;;;;23.35;15.10;;;14.40;99.90;;;;;;5041419;28;20547;-82
2022/10/01 08:22:15;;;;;;;18.83;14.57;;;14.50;99.90;;;;;;5059594;28;20017;-82
2022/10/01 08:24:41;;;;;;;21.02;16.65;;;14.50;99.90;;;;;;5025048;28;20075;-82
2022/10/01 08:27:10;;;;;;;25.73;18.15;;;14.50;99.90;;;;;;5024915;28;20494;-83
2022/10/01 08:29:40;;;;;;;25.45;17.10;;;14.50;99.90;;;;;;5041203;28;20025;-81
2022/10/01 08:32:05;;;;;;;19.70;16.00;;;14.60;99.90;;;;;;5059334;28;20021;-81
2022/10/01 08:34:31;;;;;;;27.27;16.55;;;14.70;99.90;;;;;;5057184;28;20432;-80
2022/10/01 08:36:57;;;;;;;19.27;16.05;;;14.60;99.90;;;;;;5022082;28;20040;-83
2022/10/01 08:39:22;;;;;;;27.73;17.42;;;14.60;99.90;;;;;;5021931;28;20036;-81
2022/10/01 08:42:10;;;;;;;22.83;17.17;;;14.60;99.90;;;;;;5021716;28;20032;-82
2022/10/01 08:44:41;;;;;;;18.50;15.52;;;14.60;99.90;;;;;;5038104;28;20040;-82
2022/10/01 08:47:17;;;;;;;21.88;16.48;;;14.60;99.90;;;;;;5037930;28;20021;-82
2022/10/01 08:49:52;;;;;;;23.50;16.00;;;14.60;99.90;;;;;;5037701;28;20032;-82
2022/10/01 08:52:31;;;;;;;18.33;15.27;;;14.60;99.90;;;;;;5037799;28;20502;-82
2022/10/01 08:55:04;;;;;;;18.45;15.32;;;14.70;99.90;;;;;;5055494;28;20033;-83
2022/10/01 08:57:42;;;;;;;17.40;14.38;;;14.80;99.90;;;;;;5037873;28;20037;-82
2022/10/01 09:00:14;;;;;;;16.73;14.52;;;14.90;99.90;;;;;;5037671;28;20132;-81
2022/10/01 09:02:42;;;;;;;14.68;12.20;;;15.00;99.90;;;;;;5037721;28;20017;-82
2022/10/01 09:05:35;;;;;;;15.55;11.90;;;15.20;99.90;;;;;;5021234;28;20021;-83
2022/10/01 09:08:22;;;;;;;18.38;12.20;;;15.20;99.90;;;;;;5054263;28;20029;-80
2022/10/01 09:11:00;;;;;;;14.98;11.32;;;15.20;99.90;;;;;;5037787;28;20427;-82
2022/10/01 09:13:26;;;;;;;16.90;11.80;;;15.20;99.90;;;;;;5037553;28;20469;-83
2022/10/01 09:16:30;;;;;;;13.32;10.90;;;15.20;99.90;;;;;;5054018;28;20171;-84
2022/10/01 09:19:30;;;;;;;14.20;9.23;;;15.20;99.90;;;;;;5037422;28;20025;-83
2022/10/01 09:22:06;;;;;;;12.82;7.50;;;15.40;99.90;;;;;;5045861;28;20021;-83
2022/10/01 09:24:50;;;;;;;12.68;7.88;;;15.50;99.90;;;;;;5017573;28;20029;-84
2022/10/01 09:27:26;;;;;;;11.50;7.40;;;15.40;99.90;;;;;;5017267;28;20018;-81
2022/10/01 09:29:56;;;;;;;10.68;6.18;;;15.40;99.90;;;;;;5017290;28;20039;-82
2022/10/01 09:32:29;;;;;;;11.27;5.75;;;15.20;99.90;;;;;;5017346;28;20041;-82
2022/10/01 09:34:55;;;;;;;10.98;4.78;;;15.20;99.90;;;;;;5017742;28;20535;-83
2022/10/01 09:37:24;;;;;;;8.10;4.63;;;15.20;99.90;;;;;;5000814;28;20029;-82
2022/10/01 09:40:14;;;;;;;13.38;4.63;;;15.10;99.90;;;;;;5017141;28;20030;-83
2022/10/01 09:42:40;;;;;;;12.85;3.78;;;15.10;99.90;;;;;;5017456;28;20056;-84
2022/10/01 09:45:09;;;;;;;8.63;3.85;;;15.20;99.90;;;;;;5017008;28;20087;-83
2022/10/01 09:47:35;;;;;;;14.20;3.15;;;15.30;99.90;;;;;;5034857;28;20036;-79
2022/10/01 09:50:04;;;;;;;7.32;2.03;;;15.30;99.90;;;;;;5000703;28;20393;-82
2022/10/01 09:52:34;;;;;;;8.30;2.25;;;15.30;99.90;;;;;;5000769;28;20389;-82
2022/10/01 09:55:24;;;;;;;9.65;2.28;;;15.20;99.90;;;;;;5034653;28;20067;-78
2022/10/01 09:58:20;;;;;;;9.73;1.65;;;15.20;99.90;;;;;;5033294;28;20049;-81
2022/10/01 10:00:50;;;;;;;7.63;1.63;;;15.10;99.90;;;;;;5015654;28;20138;-82
2022/10/01 10:03:26;;;;;;;7.55;1.52;;;15.10;99.90;;;;;;5001493;28;20038;-82
2022/10/01 10:05:52;;;;;;;4.95;1.30;;;15.10;99.90;;;;;;5016753;28;20065;-81
2022/10/01 10:08:34;;;;;;;9.10;1.38;;;15.40;99.90;;;;;;5000264;28;20038;-81
2022/10/01 10:11:09;;;;;;;5.15;1.20;;;15.80;99.90;;;;;;5017072;28;20025;-81
2022/10/01 10:13:40;;;;;;;5.85;0.70;;;16.50;99.90;;;;;;5016914;28;20033;-82
2022/10/01 10:16:14;;;;;;;6.90;1.00;;;17.20;99.90;;;;;;5034137;28;20028;-83
2022/10/01 10:18:40;;;;;;;4.93;0.80;;;17.90;99.90;;;;;;5034463;28;20075;-81
2022/10/01 10:21:16;;;;;;;4.53;1.10;;;18.40;99.90;;;;;;5016422;28;20025;-82
2022/10/01 10:23:51;;;;;;;5.90;0.68;;;18.90;99.90;;;;;;5034251;28;20136;-82
2022/10/01 10:26:27;;;;;;;7.18;1.23;;;19.40;99.90;;;;;;5032062;28;20045;-79
2022/10/01 10:28:55;;;;;;;3.97;0.82;;;19.70;99.90;;;;;;5033083;28;20022;-83
2022/10/01 10:31:45;;;;;;;5.15;0.82;;;20.10;99.90;;;;;;5033051;28;20049;-87
2022/10/01 10:34:15;;;;;;;7.25;0.98;;;20.60;99.90;;;;;;5016715;28;20037;-86
2022/10/01 10:36:43;;;;;;;6.57;1.20;;;20.80;99.90;;;;;;5051533;28;20028;-86
2022/10/01 10:39:21;;;;;;;7.18;0.85;;;20.80;99.90;;;;;;5021050;28;20025;-87
2022/10/01 10:41:49;;;;;;;5.65;0.80;;;20.90;99.90;;;;;;5054549;28;20035;-87
2022/10/01 10:44:21;;;;;;;6.35;0.98;;;21.30;99.90;;;;;;5034894;28;20116;-89
2022/10/01 10:46:48;;;;;;;6.00;1.10;;;21.30;99.90;;;;;;5038228;28;20021;-88
2022/10/01 10:49:20;;;;;;;7.65;1.38;;;21.20;99.50;;;;;;5053650;28;20028;-88
2022/10/01 10:51:52;;;;;;;6.95;1.25;;;21.10;99.10;;;;;;5048584;28;20419;-87
2022/10/01 10:54:46;;;;;;;5.00;1.00;;;20.80;93.70;;;;;;5033671;28;20362;-83
2022/10/01 10:57:22;;;;;;;8.57;1.23;;;20.50;92.70;;;;;;5010168;28;20030;-84
2022/10/01 10:59:58;;;;;;;9.68;1.25;;;20.70;92.00;;;;;;5034402;28;20076;-84
2022/10/01 11:02:28;;;;;;;5.90;0.70;;;20.70;91.40;;;;;;5000080;28;20025;-85
2022/10/01 11:04:56;;;;;;;8.95;1.00;;;21.20;92.10;;;;;;5016306;28;20377;-86
2022/10/01 11:07:25;;;;;;;5.85;0.93;;;21.70;91.40;;;;;;5016136;28;20489;-84
2022/10/01 11:10:04;;;;;;;7.82;1.20;;;22.20;89.80;;;;;;5016203;28;20030;-86
2022/10/01 11:12:39;;;;;;;10.45;1.52;;;22.10;81.60;;;;;;5032535;28;20529;-87
2022/10/01 11:15:12;;;;;;;9.60;1.33;;;21.60;81.90;;;;;;5034029;28;20428;-86
2022/10/01 11:18:11;;;;;;;12.13;1.47;;;21.00;84.90;;;;;;5033729;28;20025;-87
2022/10/01 11:20:53;;;;;;;8.40;1.00;;;20.10;86.40;;;;;;5017177;28;20287;-88
2022/10/01 11:23:26;;;;;;;6.78;0.98;;;19.50;90.80;;;;;;5053469;28;20013;-87
2022/10/01 11:26:10;;;;;;;7.18;1.13;;;19.70;91.70;;;;;;5035706;28;20079;-88
2022/10/01 11:28:59;;;;;;;12.20;1.60;;;20.10;91.20;;;;;;5036148;28;20029;-88
2022/10/01 11:31:45;;;;;;;10.00;1.10;;;20.60;90.50;;;;;;5035757;28;20032;-88
2022/10/01 11:34:37;;;;;;;6.28;0.93;;;21.10;88.60;;;;;;5035712;28;20067;-86
2022/10/01 11:37:28;;;;;;;7.97;1.40;;;21.60;86.20;;;;;;4990363;28;20102;-90
2022/10/01 11:39:57;;;;;;;7.00;0.98;;;22.20;83.90;;;;;;5036028;28;20382;-88
2022/10/01 11:42:33;;;;;;;8.68;1.02;;;22.70;81.00;;;;;;5052408;28;20017;-89
2022/10/01 11:45:15;;;;;;;8.45;0.73;;;23.10;75.10;;;;;;5035468;28;20021;-85
2022/10/01 11:47:49;;;;;;;7.55;1.10;;;23.40;71.60;;;;;;5035878;28;20021;-88
2022/10/01 11:50:24;;;;;;;6.07;1.17;;;23.70;68.70;;;;;;5035887;28;20060;-88
2022/10/01 11:53:16;;;;;;;6.70;1.00;;;23.90;68.40;;;;;;5053296;28;20025;-87
2022/10/01 11:59:05;;;;;;;6.65;1.10;;;23.90;65.50;;;;;;5053274;28;20459;-86
2022/10/01 12:01:58;;;;;;;9.07;1.00;;;24.00;64.90;;;;;;5035878;28;20112;-86
2022/10/01 12:04:36;;;;;;;5.07;1.02;;;24.20;63.20;;;;;;5035296;28;20446;-85
2022/10/01 12:07:10;;;;;;;7.95;0.95;;;24.50;63.60;;;;;;5035800;28;20441;-86
2022/10/01 12:10:01;;;;;;;;;;;24.70;61.80;;;;;;5053482;28;20057;-88
2022/10/01 12:12:34;;;;;;;6.78;0.93;;;24.70;61.30;;;;;;5022280;28;19904;-85
2022/10/01 12:15:19;;;;;;;6.13;1.00;;;25.00;61.00;;;;;;5056766;28;20017;-90
2022/10/01 12:17:59;;;;;;;8.50;1.00;;;25.20;59.60;;;;;;5038659;28;20420;-85
2022/10/01 12:20:37;;;;;;;5.85;0.93;;;25.30;58.80;;;;;;5039034;28;20025;-81
2022/10/01 12:23:09;;;;;;;5.38;0.90;;;25.40;57.40;;;;;;5056547;28;20032;-84
2022/10/01 12:25:59;;;;;;;5.25;0.73;;;25.50;57.00;;;;;;5056528;28;20469;-87
2022/10/01 12:28:33;;;;;;;7.32;1.63;;;25.50;56.70;;;;;;5038684;28;20474;-86
2022/10/01 12:31:34;;;;;;;7.40;1.10;;;25.40;56.30;;;;;;5038633;28;20036;-84
2022/10/01 12:34:26;;;;;;;7.50;0.90;;;25.50;56.40;;;;;;4939981;29;20134;-84
2022/10/01 12:37:33;;;;;;;5.95;1.10;;;25.80;56.20;;;;;;5053803;28;20045;-85
2022/10/01 12:40:16;;;;;;;4.20;1.00;;;25.20;54.40;;;;;;5039097;28;20171;-83
2022/10/01 12:43:21;;;;;;;4.22;0.60;;;24.40;56.40;;;;;;5039202;28;20021;-84
2022/10/01 12:46:12;;;;;;;7.05;0.80;;;23.50;59.20;;;;;;5033893;28;20075;-85
2022/10/01 12:48:47;;;;;;;5.97;0.98;;;22.80;61.00;;;;;;5038759;28;20029;-86
2022/10/01 12:51:42;;;;;;;8.55;1.10;;;22.30;61.30;;;;;;5056095;28;20052;-84
2022/10/01 12:54:29;;;;;;;9.13;1.10;;;21.90;62.50;;;;;;5056369;28;20406;-85
2022/10/01 12:57:10;;;;;;;7.95;1.20;;;21.40;63.40;;;;;;5055743;28;20420;-88
2022/10/01 12:59:57;;;;;;;5.40;0.75;;;20.90;64.80;;;;;;5037984;28;20090;-83
2022/10/01 13:02:44;;;;;;;9.70;1.00;;;20.50;65.70;;;;;;5055828;28;20021;-83
2022/10/01 13:05:19;;;;;;;8.18;1.08;;;20.10;66.50;;;;;;5037731;28;20031;-87
2022/10/01 13:07:55;;;;;;;7.78;1.10;;;20.30;67.80;;;;;;5037774;28;20025;-86
2022/10/01 13:10:51;;;;;;;10.35;1.17;;;21.00;67.50;;;;;;5037602;28;20032;-87
2022/10/01 13:13:26;;;;;;;5.78;1.13;;;21.70;65.40;;;;;;5024747;28;20045;-83